Terminal Aerodrome Forecast
Issued by NWS

Home | Current Version | Previous Version | Text Only | Print | Product List | Glossary On
Versions: 1 2 3 4 5 6 7 8 9 10 11 12 13 14 15 16 17 18 19 20 21
610
FTUS43 KGRR 270529
TAFBTL
TAF
KBTL 270529Z 2706/2806 22010KT P6SM SCT080
     FM271500 25016G22KT P6SM SCT080
     FM272000 25010KT P6SM BKN080
     FM280100 24004KT P6SM VCSH OVC040=

USA.gov is the U.S. government's official web portal to all federal, state and local government web resources and services.